Orel 5 — EMFH — position and weather

sailwx.info

Track history (hours):
 
Tides and Currents Weather Stations Pressure Air Temp Water Temp Dewpoint Dewpoint Depression Visibility Wind Speed Wind Dir Waves Ship Positions

Orel 5

Last reported at 2015-Sep-03 08:17 UTC. Time now 2015-Sep-03 17:17 UTC.
Position N 45°19' E 030°14'.

Length 108 m; draft 3.2 m.

Type: Cargo ship. MMSI: 272059000.

Date/timePositionNaut miles runAvg speedWind from/ knotsBaromVisibWave heightAir tempDewpointWater temp
2015-Sep-03 08:17N 45°19' E 030°14'6 7.3
2015-Sep-03 07:29N 45°24' E 030°19'9 7.4
2015-Sep-03 06:14N 45°32' E 030°26'5 7.1
2015-Sep-03 05:33N 45°36' E 030°29'7 7.1
2015-Sep-03 04:33N 45°42' E 030°34'7 7.3
2015-Sep-03 03:33N 45°48' E 030°41'7 7.3
2015-Sep-03 02:33N 45°53' E 030°48'7 7.2
2015-Sep-03 01:33N 45°59' E 030°54'7 7.2
2015-Sep-03 00:33N 46°05' E 031°01'7 7.1
2015-Sep-02 23:34N 46°10' E 031°07'7 6.9
2015-Sep-02 22:33N 46°16' E 031°12'7 7.1
2015-Sep-02 21:33N 46°22' E 031°17'7 7.1
2015-Sep-02 20:34N 46°29' E 031°21'7 6.9
2015-Sep-02 19:33N 46°34' E 031°27'6 5.6
2015-Sep-02 18:33N 46°35' E 031°35'8 7.1
2015-Sep-02 17:24N 46°36' E 031°47'6 7.1
2015-Sep-02 16:33N 46°34' E 031°56'7 7.1
2015-Sep-02 15:32N 46°32' E 032°05'7 7.1
2015-Sep-02 14:31N 46°33' E 032°16'  
2015-Aug-28 16:33N 48°01' E 035°08'8 8.2
2015-Aug-28 15:33N 47°53' E 035°06'1 1.4
2015-Aug-28 14:33N 47°52' E 035°05'6 5.7
2015-Aug-28 13:33N 47°47' E 035°09'138 5.3
2015-Aug-27 11:26N 46°33' E 032°17'7 7.9
2015-Aug-27 10:30N 46°32' E 032°07'7 7.8
2015-Aug-27 09:34N 46°34' E 031°57'8 7.5
2015-Aug-27 08:34N 46°36' E 031°46'9 7.6
2015-Aug-27 07:21N 46°35' E 031°33'24 7.7
2015-Aug-27 04:16N 46°33' E 030°58'5 7.4
2015-Aug-27 03:34N 46°27' E 030°58'8 7.8
2015-Aug-27 02:34N 46°20' E 031°03'2 1.9
2015-Aug-27 01:28N 46°19' E 031°04'0 0.0
2015-Aug-27 00:31N 46°19' E 031°04'0 0.0
2015-Aug-26 23:22N 46°19' E 031°04'0 0.0
2015-Aug-26 22:25N 46°19' E 031°04'0 0.0
2015-Aug-26 21:31N 46°19' E 031°04'0 0.0
2015-Aug-26 20:31N 46°19' E 031°04'0 0.0
2015-Aug-26 19:31N 46°19' E 031°04'0 0.0
2015-Aug-26 18:31N 46°19' E 031°04'0 0.0
2015-Aug-26 17:25N 46°19' E 031°04'0 0.0
2015-Aug-26 16:31N 46°19' E 031°04'0 0.0
2015-Aug-26 15:22N 46°19' E 031°04'115 6.4
2015-Aug-25 21:14N 44°43' E 029°34'35 7.5
2015-Aug-25 16:31N 44°13' E 029°07'  
Track history (hours):
 
Tides and Currents Weather Stations Pressure Air Temp Water Temp Dewpoint Dewpoint Depression Visibility Wind Speed Wind Dir Waves Ship Positions

Orel 5

Last reported at 2015-Sep-03 08:17 UTC. Time now 2015-Sep-03 17:17 UTC.
Position N 45°19' E 030°14'.

Length 108 m; draft 3.2 m.

Type: Cargo ship. MMSI: 272059000.

Date/timePositionNaut miles runAvg speedWind from/ knotsBaromVisibWave heightAir tempDewpointWater temp
2015-Sep-03 08:17N 45°19' E 030°14'6 7.3
2015-Sep-03 07:29N 45°24' E 030°19'9 7.4
2015-Sep-03 06:14N 45°32' E 030°26'5 7.1
2015-Sep-03 05:33N 45°36' E 030°29'7 7.1
2015-Sep-03 04:33N 45°42' E 030°34'7 7.3
2015-Sep-03 03:33N 45°48' E 030°41'7 7.3
2015-Sep-03 02:33N 45°53' E 030°48'7 7.2
2015-Sep-03 01:33N 45°59' E 030°54'7 7.2
2015-Sep-03 00:33N 46°05' E 031°01'7 7.1
2015-Sep-02 23:34N 46°10' E 031°07'7 6.9
2015-Sep-02 22:33N 46°16' E 031°12'7 7.1
2015-Sep-02 21:33N 46°22' E 031°17'7 7.1
2015-Sep-02 20:34N 46°29' E 031°21'7 6.9
2015-Sep-02 19:33N 46°34' E 031°27'6 5.6
2015-Sep-02 18:33N 46°35' E 031°35'8 7.1
2015-Sep-02 17:24N 46°36' E 031°47'6 7.1
2015-Sep-02 16:33N 46°34' E 031°56'7 7.1
2015-Sep-02 15:32N 46°32' E 032°05'7 7.1
2015-Sep-02 14:31N 46°33' E 032°16'  
2015-Aug-28 16:33N 48°01' E 035°08'8 8.2
2015-Aug-28 15:33N 47°53' E 035°06'1 1.4
2015-Aug-28 14:33N 47°52' E 035°05'6 5.7
2015-Aug-28 13:33N 47°47' E 035°09'138 5.3
2015-Aug-27 11:26N 46°33' E 032°17'7 7.9
2015-Aug-27 10:30N 46°32' E 032°07'7 7.8
2015-Aug-27 09:34N 46°34' E 031°57'8 7.5
2015-Aug-27 08:34N 46°36' E 031°46'9 7.6
2015-Aug-27 07:21N 46°35' E 031°33'24 7.7
2015-Aug-27 04:16N 46°33' E 030°58'5 7.4
2015-Aug-27 03:34N 46°27' E 030°58'8 7.8
2015-Aug-27 02:34N 46°20' E 031°03'2 1.9
2015-Aug-27 01:28N 46°19' E 031°04'0 0.0
2015-Aug-27 00:31N 46°19' E 031°04'0 0.0
2015-Aug-26 23:22N 46°19' E 031°04'0 0.0
2015-Aug-26 22:25N 46°19' E 031°04'0 0.0
2015-Aug-26 21:31N 46°19' E 031°04'0 0.0
2015-Aug-26 20:31N 46°19' E 031°04'0 0.0
2015-Aug-26 19:31N 46°19' E 031°04'0 0.0
2015-Aug-26 18:31N 46°19' E 031°04'0 0.0
2015-Aug-26 17:25N 46°19' E 031°04'0 0.0
2015-Aug-26 16:31N 46°19' E 031°04'0 0.0
2015-Aug-26 15:22N 46°19' E 031°04'115 6.4
2015-Aug-25 21:14N 44°43' E 029°34'35 7.5
2015-Aug-25 16:31N 44°13' E 029°07'  

Dump ship's entire track history